sensor_id;sensor_type;location;lat;lon;timestamp;temperature;humidity
2839;DHT22;1427;48.510;9.060;2024-02-15T00:00:32;9.90;99.90
2839;DHT22;1427;48.510;9.060;2024-02-15T00:03:01;9.90;99.90
2839;DHT22;1427;48.510;9.060;2024-02-15T00:05:43;9.80;99.90
2839;DHT22;1427;48.510;9.060;2024-02-15T00:08:13;9.80;99.90
2839;DHT22;1427;48.510;9.060;2024-02-15T00:10:43;9.70;99.90
2839;DHT22;1427;48.510;9.060;2024-02-15T00:13:13;9.90;99.90
2839;DHT22;1427;48.510;9.060;2024-02-15T00:15:41;9.70;99.90
2839;DHT22;1427;48.510;9.060;2024-02-15T00:18:10;9.80;99.90
2839;DHT22;1427;48.510;9.060;2024-02-15T00:20:38;9.90;99.90
2839;DHT22;1427;48.510;9.060;2024-02-15T00:23:07;10.10;99.90
2839;DHT22;1427;48.510;9.060;2024-02-15T00:25:35;9.90;99.90
2839;DHT22;1427;48.510;9.060;2024-02-15T00:28:05;9.90;99.90
2839;DHT22;1427;48.510;9.060;2024-02-15T00:30:34;9.80;99.90
2839;DHT22;1427;48.510;9.060;2024-02-15T00:33:03;9.80;99.90
2839;DHT22;1427;48.510;9.060;2024-02-15T00:35:32;9.70;99.90
2839;DHT22;1427;48.510;9.060;2024-02-15T00:38:01;9.70;99.90
2839;DHT22;1427;48.510;9.060;2024-02-15T00:40:30;9.60;99.90
2839;DHT22;1427;48.510;9.060;2024-02-15T00:42:58;9.40;99.90
2839;DHT22;1427;48.510;9.060;2024-02-15T00:45:28;9.30;99.90
2839;DHT22;1427;48.510;9.060;2024-02-15T00:47:56;9.50;99.90
2839;DHT22;1427;48.510;9.060;2024-02-15T00:50:25;9.80;99.90
2839;DHT22;1427;48.510;9.060;2024-02-15T00:52:53;9.80;99.90
2839;DHT22;1427;48.510;9.060;2024-02-15T00:55:21;9.70;99.90
2839;DHT22;1427;48.510;9.060;2024-02-15T00:57:49;9.60;99.90
2839;DHT22;1427;48.510;9.060;2024-02-15T01:00:18;9.60;99.90
2839;DHT22;1427;48.510;9.060;2024-02-15T01:02:48;9.50;99.90
2839;DHT22;1427;48.510;9.060;2024-02-15T01:05:17;9.60;99.90
2839;DHT22;1427;48.510;9.060;2024-02-15T01:07:45;9.60;99.90
2839;DHT22;1427;48.510;9.060;2024-02-15T01:10:15;9.50;99.90
2839;DHT22;1427;48.510;9.060;2024-02-15T01:12:44;9.60;99.90
2839;DHT22;1427;48.510;9.060;2024-02-15T01:15:12;9.70;99.90
2839;DHT22;1427;48.510;9.060;2024-02-15T01:17:40;9.40;99.90
2839;DHT22;1427;48.510;9.060;2024-02-15T01:20:11;9.40;99.90
2839;DHT22;1427;48.510;9.060;2024-02-15T01:22:39;9.50;99.90
2839;DHT22;1427;48.510;9.060;2024-02-15T01:25:07;9.50;99.90
2839;DHT22;1427;48.510;9.060;2024-02-15T01:27:38;9.70;99.90
2839;DHT22;1427;48.510;9.060;2024-02-15T01:30:07;9.90;99.90
2839;DHT22;1427;48.510;9.060;2024-02-15T01:32:37;9.60;99.90
2839;DHT22;1427;48.510;9.060;2024-02-15T01:35:10;9.40;99.90
2839;DHT22;1427;48.510;9.060;2024-02-15T01:37:39;9.20;99.90
2839;DHT22;1427;48.510;9.060;2024-02-15T01:40:08;9.10;99.90
2839;DHT22;1427;48.510;9.060;2024-02-15T01:42:39;9.10;99.90
2839;DHT22;1427;48.510;9.060;2024-02-15T01:45:08;9.10;99.90
2839;DHT22;1427;48.510;9.060;2024-02-15T01:47:39;9.00;99.90
2839;DHT22;1427;48.510;9.060;2024-02-15T01:50:08;9.10;99.90
2839;DHT22;1427;48.510;9.060;2024-02-15T01:52:39;8.80;99.90
2839;DHT22;1427;48.510;9.060;2024-02-15T01:55:09;8.70;99.90
2839;DHT22;1427;48.510;9.060;2024-02-15T01:57:37;8.70;99.90
2839;DHT22;1427;48.510;9.060;2024-02-15T02:00:07;8.80;99.90
2839;DHT22;1427;48.510;9.060;2024-02-15T02:02:37;8.80;99.90
2839;DHT22;1427;48.510;9.060;2024-02-15T02:05:06;8.70;99.90
2839;DHT22;1427;48.510;9.060;2024-02-15T02:07:34;8.70;99.90
2839;DHT22;1427;48.510;9.060;2024-02-15T02:10:06;8.70;99.90
2839;DHT22;1427;48.510;9.060;2024-02-15T02:12:35;8.70;99.90
2839;DHT22;1427;48.510;9.060;2024-02-15T02:15:05;8.70;99.90
2839;DHT22;1427;48.510;9.060;2024-02-15T02:17:34;8.50;99.90
2839;DHT22;1427;48.510;9.060;2024-02-15T02:20:02;8.40;99.90
2839;DHT22;1427;48.510;9.060;2024-02-15T02:22:35;8.40;99.90
2839;DHT22;1427;48.510;9.060;2024-02-15T02:25:06;8.40;99.90
2839;DHT22;1427;48.510;9.060;2024-02-15T02:27:35;8.30;99.90
2839;DHT22;1427;48.510;9.060;2024-02-15T02:30:05;8.40;99.90
2839;DHT22;1427;48.510;9.060;2024-02-15T02:32:36;8.20;99.90
2839;DHT22;1427;48.510;9.060;2024-02-15T02:35:06;8.20;99.90
2839;DHT22;1427;48.510;9.060;2024-02-15T02:37:34;8.10;99.90
2839;DHT22;1427;48.510;9.060;2024-02-15T02:40:06;8.00;99.90
2839;DHT22;1427;48.510;9.060;2024-02-15T02:42:37;7.90;99.90
2839;DHT22;1427;48.510;9.060;2024-02-15T02:45:14;7.80;99.90
2839;DHT22;1427;48.510;9.060;2024-02-15T02:47:42;7.80;99.90
2839;DHT22;1427;48.510;9.060;2024-02-15T02:50:10;7.80;99.90
2839;DHT22;1427;48.510;9.060;2024-02-15T02:52:39;7.70;99.90
2839;DHT22;1427;48.510;9.060;2024-02-15T02:55:09;7.70;99.90
2839;DHT22;1427;48.510;9.060;2024-02-15T02:57:38;7.60;99.90
2839;DHT22;1427;48.510;9.060;2024-02-15T03:00:08;7.60;99.90
2839;DHT22;1427;48.510;9.060;2024-02-15T03:02:39;7.50;99.90
2839;DHT22;1427;48.510;9.060;2024-02-15T03:05:08;7.50;99.90
2839;DHT22;1427;48.510;9.060;2024-02-15T03:07:39;7.50;99.90
2839;DHT22;1427;48.510;9.060;2024-02-15T03:10:10;7.50;99.90
2839;DHT22;1427;48.510;9.060;2024-02-15T03:12:41;7.40;99.90
2839;DHT22;1427;48.510;9.060;2024-02-15T03:15:15;7.30;99.90
2839;DHT22;1427;48.510;9.060;2024-02-15T03:17:47;7.20;99.90
2839;DHT22;1427;48.510;9.060;2024-02-15T03:20:16;7.40;99.90
2839;DHT22;1427;48.510;9.060;2024-02-15T03:22:53;7.10;99.90
2839;DHT22;1427;48.510;9.060;2024-02-15T03:25:23;7.20;99.90
2839;DHT22;1427;48.510;9.060;2024-02-15T03:27:52;7.00;99.90
2839;DHT22;1427;48.510;9.060;2024-02-15T03:30:22;6.90;99.90
2839;DHT22;1427;48.510;9.060;2024-02-15T03:32:51;6.80;99.90
2839;DHT22;1427;48.510;9.060;2024-02-15T03:35:20;6.80;99.90
2839;DHT22;1427;48.510;9.060;2024-02-15T03:37:50;6.80;99.90
2839;DHT22;1427;48.510;9.060;2024-02-15T03:40:19;7.00;99.90
2839;DHT22;1427;48.510;9.060;2024-02-15T03:42:49;6.90;99.90
2839;DHT22;1427;48.510;9.060;2024-02-15T03:45:18;6.90;99.90
2839;DHT22;1427;48.510;9.060;2024-02-15T03:47:46;6.90;99.90
2839;DHT22;1427;48.510;9.060;2024-02-15T03:50:17;6.90;99.90
2839;DHT22;1427;48.510;9.060;2024-02-15T03:52:46;6.90;99.90
2839;DHT22;1427;48.510;9.060;2024-02-15T03:55:14;6.80;99.90
2839;DHT22;1427;48.510;9.060;2024-02-15T03:57:42;6.60;99.90
2839;DHT22;1427;48.510;9.060;2024-02-15T04:00:15;6.60;99.90
2839;DHT22;1427;48.510;9.060;2024-02-15T04:02:49;6.50;99.90
2839;DHT22;1427;48.510;9.060;2024-02-15T04:05:17;6.50;99.90
2839;DHT22;1427;48.510;9.060;2024-02-15T04:07:49;6.50;99.90
2839;DHT22;1427;48.510;9.060;2024-02-15T04:10:17;6.40;99.90
2839;DHT22;1427;48.510;9.060;2024-02-15T04:12:45;6.50;99.90
2839;DHT22;1427;48.510;9.060;2024-02-15T04:15:15;6.50;99.90
2839;DHT22;1427;48.510;9.060;2024-02-15T04:17:45;6.50;99.90
2839;DHT22;1427;48.510;9.060;2024-02-15T04:20:14;6.50;99.90
2839;DHT22;1427;48.510;9.060;2024-02-15T04:22:44;6.50;99.90
2839;DHT22;1427;48.510;9.060;2024-02-15T04:25:17;6.50;99.90
2839;DHT22;1427;48.510;9.060;2024-02-15T04:27:49;6.70;99.90
2839;DHT22;1427;48.510;9.060;2024-02-15T04:30:19;6.60;99.90
2839;DHT22;1427;48.510;9.060;2024-02-15T04:32:50;6.60;99.90
2839;DHT22;1427;48.510;9.060;2024-02-15T04:35:20;6.60;99.90
2839;DHT22;1427;48.510;9.060;2024-02-15T04:37:49;6.60;99.90
2839;DHT22;1427;48.510;9.060;2024-02-15T04:40:20;6.60;99.90
2839;DHT22;1427;48.510;9.060;2024-02-15T04:42:48;6.60;99.90
2839;DHT22;1427;48.510;9.060;2024-02-15T04:45:16;6.70;99.90
2839;DHT22;1427;48.510;9.060;2024-02-15T04:47:47;6.60;99.90
2839;DHT22;1427;48.510;9.060;2024-02-15T04:50:18;6.60;99.90
2839;DHT22;1427;48.510;9.060;2024-02-15T04:52:48;6.60;99.90
2839;DHT22;1427;48.510;9.060;2024-02-15T04:55:17;6.50;99.90
2839;DHT22;1427;48.510;9.060;2024-02-15T04:57:45;6.50;99.90
2839;DHT22;1427;48.510;9.060;2024-02-15T05:00:16;6.50;99.90
2839;DHT22;1427;48.510;9.060;2024-02-15T05:02:49;6.50;99.90
2839;DHT22;1427;48.510;9.060;2024-02-15T05:05:17;6.50;99.90
2839;DHT22;1427;48.510;9.060;2024-02-15T05:07:46;6.50;99.90
2839;DHT22;1427;48.510;9.060;2024-02-15T05:10:16;6.40;99.90
2839;DHT22;1427;48.510;9.060;2024-02-15T05:12:44;6.40;99.90
2839;DHT22;1427;48.510;9.060;2024-02-15T05:15:15;6.40;99.90
2839;DHT22;1427;48.510;9.060;2024-02-15T05:17:45;6.50;99.90
2839;DHT22;1427;48.510;9.060;2024-02-15T05:20:17;6.40;99.90
2839;DHT22;1427;48.510;9.060;2024-02-15T05:22:47;6.40;99.90
2839;DHT22;1427;48.510;9.060;2024-02-15T05:25:17;6.50;99.90
2839;DHT22;1427;48.510;9.060;2024-02-15T05:27:51;6.30;99.90
2839;DHT22;1427;48.510;9.060;2024-02-15T05:30:21;6.30;99.90
2839;DHT22;1427;48.510;9.060;2024-02-15T05:32:50;6.20;99.90
2839;DHT22;1427;48.510;9.060;2024-02-15T05:35:22;6.10;99.90
2839;DHT22;1427;48.510;9.060;2024-02-15T05:37:51;6.10;99.90
2839;DHT22;1427;48.510;9.060;2024-02-15T05:40:20;6.10;99.90
2839;DHT22;1427;48.510;9.060;2024-02-15T05:42:48;6.00;99.90
2839;DHT22;1427;48.510;9.060;2024-02-15T05:45:30;6.00;99.90
2839;DHT22;1427;48.510;9.060;2024-02-15T05:48:02;6.00;99.90
2839;DHT22;1427;48.510;9.060;2024-02-15T05:50:34;6.00;99.90
2839;DHT22;1427;48.510;9.060;2024-02-15T05:53:03;5.90;99.90
2839;DHT22;1427;48.510;9.060;2024-02-15T05:55:31;5.90;99.90
2839;DHT22;1427;48.510;9.060;2024-02-15T05:58:02;5.90;99.90
2839;DHT22;1427;48.510;9.060;2024-02-15T06:00:30;5.90;99.90
2839;DHT22;1427;48.510;9.060;2024-02-15T06:03:01;6.10;99.90
2839;DHT22;1427;48.510;9.060;2024-02-15T06:05:30;5.90;99.90
2839;DHT22;1427;48.510;9.060;2024-02-15T06:08:00;5.90;99.90
2839;DHT22;1427;48.510;9.060;2024-02-15T06:10:28;5.90;99.90
2839;DHT22;1427;48.510;9.060;2024-02-15T06:12:58;5.90;99.90
2839;DHT22;1427;48.510;9.060;2024-02-15T06:15:27;5.80;99.90
2839;DHT22;1427;48.510;9.060;2024-02-15T06:17:55;5.70;99.90
2839;DHT22;1427;48.510;9.060;2024-02-15T06:20:24;5.60;99.90
2839;DHT22;1427;48.510;9.060;2024-02-15T06:22:55;5.50;99.90
2839;DHT22;1427;48.510;9.060;2024-02-15T06:25:25;5.50;99.90
2839;DHT22;1427;48.510;9.060;2024-02-15T06:27:53;5.60;99.90
2839;DHT22;1427;48.510;9.060;2024-02-15T06:30:26;5.60;99.90
2839;DHT22;1427;48.510;9.060;2024-02-15T06:33:17;5.60;99.90
2839;DHT22;1427;48.510;9.060;2024-02-15T06:36:06;5.60;99.90
2839;DHT22;1427;48.510;9.060;2024-02-15T06:38:52;5.60;99.90
2839;DHT22;1427;48.510;9.060;2024-02-15T06:41:39;5.60;99.90
2839;DHT22;1427;48.510;9.060;2024-02-15T06:44:08;5.60;99.90
2839;DHT22;1427;48.510;9.060;2024-02-15T06:46:36;5.60;99.90
2839;DHT22;1427;48.510;9.060;2024-02-15T06:49:06;5.70;99.90
2839;DHT22;1427;48.510;9.060;2024-02-15T06:51:37;5.70;99.90
2839;DHT22;1427;48.510;9.060;2024-02-15T06:54:05;5.70;99.90
2839;DHT22;1427;48.510;9.060;2024-02-15T06:56:36;5.90;99.90
2839;DHT22;1427;48.510;9.060;2024-02-15T06:59:05;5.70;99.90
2839;DHT22;1427;48.510;9.060;2024-02-15T07:01:34;5.80;99.90
2839;DHT22;1427;48.510;9.060;2024-02-15T07:04:02;5.60;99.90
2839;DHT22;1427;48.510;9.060;2024-02-15T07:06:34;5.80;99.90
2839;DHT22;1427;48.510;9.060;2024-02-15T07:09:05;5.80;99.90
2839;DHT22;1427;48.510;9.060;2024-02-15T07:11:33;5.90;99.90
2839;DHT22;1427;48.510;9.060;2024-02-15T07:14:02;5.90;99.90
2839;DHT22;1427;48.510;9.060;2024-02-15T07:16:32;5.90;99.90
2839;DHT22;1427;48.510;9.060;2024-02-15T07:19:01;6.00;99.90
2839;DHT22;1427;48.510;9.060;2024-02-15T07:21:30;6.10;99.90
2839;DHT22;1427;48.510;9.060;2024-02-15T07:23:58;6.30;99.90
2839;DHT22;1427;48.510;9.060;2024-02-15T07:26:27;6.70;99.90
2839;DHT22;1427;48.510;9.060;2024-02-15T07:28:55;6.90;99.90
2839;DHT22;1427;48.510;9.060;2024-02-15T07:31:28;7.10;99.90
2839;DHT22;1427;48.510;9.060;2024-02-15T07:33:58;7.10;99.90
2839;DHT22;1427;48.510;9.060;2024-02-15T07:36:26;7.30;99.90
2839;DHT22;1427;48.510;9.060;2024-02-15T07:38:55;7.80;99.90
2839;DHT22;1427;48.510;9.060;2024-02-15T07:41:29;7.90;99.90
2839;DHT22;1427;48.510;9.060;2024-02-15T07:43:57;8.40;99.90
2839;DHT22;1427;48.510;9.060;2024-02-15T07:46:27;8.80;99.90
2839;DHT22;1427;48.510;9.060;2024-02-15T07:48:56;8.90;99.90
2839;DHT22;1427;48.510;9.060;2024-02-15T07:51:25;9.00;99.90
2839;DHT22;1427;48.510;9.060;2024-02-15T07:53:54;9.00;99.90
2839;DHT22;1427;48.510;9.060;2024-02-15T07:56:22;9.00;99.90
2839;DHT22;1427;48.510;9.060;2024-02-15T07:58:51;9.20;99.90
2839;DHT22;1427;48.510;9.060;2024-02-15T08:01:20;9.10;99.90
2839;DHT22;1427;48.510;9.060;2024-02-15T08:03:51;9.00;99.90
2839;DHT22;1427;48.510;9.060;2024-02-15T08:06:22;9.00;99.90
2839;DHT22;1427;48.510;9.060;2024-02-15T08:08:54;9.00;99.90
2839;DHT22;1427;48.510;9.060;2024-02-15T08:11:22;9.40;99.90
2839;DHT22;1427;48.510;9.060;2024-02-15T08:13:51;9.70;99.90
2839;DHT22;1427;48.510;9.060;2024-02-15T08:16:22;10.00;99.90
2839;DHT22;1427;48.510;9.060;2024-02-15T08:18:50;10.20;99.90
2839;DHT22;1427;48.510;9.060;2024-02-15T08:21:26;10.50;99.90
2839;DHT22;1427;48.510;9.060;2024-02-15T08:23:57;10.70;99.90
2839;DHT22;1427;48.510;9.060;2024-02-15T08:26:26;11.00;99.90
2839;DHT22;1427;48.510;9.060;2024-02-15T08:28:56;11.00;99.90
2839;DHT22;1427;48.510;9.060;2024-02-15T08:31:24;11.00;99.90
2839;DHT22;1427;48.510;9.060;2024-02-15T08:33:52;11.10;99.90
2839;DHT22;1427;48.510;9.060;2024-02-15T08:36:21;11.10;99.90
2839;DHT22;1427;48.510;9.060;2024-02-15T08:38:49;11.00;99.90
2839;DHT22;1427;48.510;9.060;2024-02-15T08:41:19;10.90;99.90
2839;DHT22;1427;48.510;9.060;2024-02-15T08:43:47;11.10;99.90
2839;DHT22;1427;48.510;9.060;2024-02-15T08:46:16;11.10;99.90
2839;DHT22;1427;48.510;9.060;2024-02-15T08:48:44;10.90;99.90
2839;DHT22;1427;48.510;9.060;2024-02-15T08:51:13;11.20;99.90
2839;DHT22;1427;48.510;9.060;2024-02-15T08:53:43;11.20;99.90
2839;DHT22;1427;48.510;9.060;2024-02-15T08:56:11;11.20;99.90
2839;DHT22;1427;48.510;9.060;2024-02-15T08:58:40;11.40;99.90
2839;DHT22;1427;48.510;9.060;2024-02-15T09:01:09;11.50;99.90
2839;DHT22;1427;48.510;9.060;2024-02-15T09:03:40;11.90;99.90
2839;DHT22;1427;48.510;9.060;2024-02-15T09:06:08;12.20;99.90
2839;DHT22;1427;48.510;9.060;2024-02-15T09:08:38;12.80;99.90
2839;DHT22;1427;48.510;9.060;2024-02-15T09:11:06;12.80;99.90
2839;DHT22;1427;48.510;9.060;2024-02-15T09:13:40;13.20;99.90
2839;DHT22;1427;48.510;9.060;2024-02-15T09:16:08;13.50;99.90
2839;DHT22;1427;48.510;9.060;2024-02-15T09:18:38;13.50;99.90
2839;DHT22;1427;48.510;9.060;2024-02-15T09:21:14;13.40;99.90
2839;DHT22;1427;48.510;9.060;2024-02-15T09:23:42;13.50;99.90
2839;DHT22;1427;48.510;9.060;2024-02-15T09:26:11;13.70;99.90
2839;DHT22;1427;48.510;9.060;2024-02-15T09:28:41;13.80;99.90
2839;DHT22;1427;48.510;9.060;2024-02-15T09:31:11;13.80;99.90
2839;DHT22;1427;48.510;9.060;2024-02-15T09:33:40;13.50;99.90
2839;DHT22;1427;48.510;9.060;2024-02-15T09:36:09;13.10;99.90
2839;DHT22;1427;48.510;9.060;2024-02-15T09:38:39;13.10;99.90
2839;DHT22;1427;48.510;9.060;2024-02-15T09:41:07;13.50;99.90
2839;DHT22;1427;48.510;9.060;2024-02-15T09:43:35;13.70;99.90
2839;DHT22;1427;48.510;9.060;2024-02-15T09:46:05;13.80;99.90
2839;DHT22;1427;48.510;9.060;2024-02-15T09:48:34;14.20;99.90
2839;DHT22;1427;48.510;9.060;2024-02-15T09:51:04;14.60;99.90
2839;DHT22;1427;48.510;9.060;2024-02-15T09:53:32;15.10;99.90
2839;DHT22;1427;48.510;9.060;2024-02-15T09:56:01;15.50;99.90
2839;DHT22;1427;48.510;9.060;2024-02-15T09:58:34;15.50;99.90
2839;DHT22;1427;48.510;9.060;2024-02-15T10:01:05;15.60;99.90
2839;DHT22;1427;48.510;9.060;2024-02-15T10:03:38;15.90;99.90
2839;DHT22;1427;48.510;9.060;2024-02-15T10:06:07;16.10;99.90
2839;DHT22;1427;48.510;9.060;2024-02-15T10:08:37;16.50;99.90
2839;DHT22;1427;48.510;9.060;2024-02-15T10:11:06;17.10;99.90
2839;DHT22;1427;48.510;9.060;2024-02-15T10:13:36;17.50;99.90
2839;DHT22;1427;48.510;9.060;2024-02-15T10:16:16;17.80;99.90
2839;DHT22;1427;48.510;9.060;2024-02-15T10:18:45;18.00;99.90
2839;DHT22;1427;48.510;9.060;2024-02-15T10:21:27;18.30;99.90
2839;DHT22;1427;48.510;9.060;2024-02-15T10:24:05;18.40;99.90
2839;DHT22;1427;48.510;9.060;2024-02-15T10:26:34;18.50;99.90
2839;DHT22;1427;48.510;9.060;2024-02-15T10:29:06;18.60;99.90
2839;DHT22;1427;48.510;9.060;2024-02-15T10:31:38;18.60;99.90
2839;DHT22;1427;48.510;9.060;2024-02-15T10:34:08;19.00;99.90
2839;DHT22;1427;48.510;9.060;2024-02-15T10:36:36;19.40;99.90
2839;DHT22;1427;48.510;9.060;2024-02-15T10:39:12;18.80;99.90
2839;DHT22;1427;48.510;9.060;2024-02-15T10:41:45;18.60;99.90
2839;DHT22;1427;48.510;9.060;2024-02-15T10:44:16;19.20;99.90
2839;DHT22;1427;48.510;9.060;2024-02-15T10:46:48;19.60;99.90
2839;DHT22;1427;48.510;9.060;2024-02-15T10:49:22;19.40;99.10
2839;DHT22;1427;48.510;9.060;2024-02-15T10:51:54;19.30;99.50
2839;DHT22;1427;48.510;9.060;2024-02-15T10:54:56;20.00;99.90
2839;DHT22;1427;48.510;9.060;2024-02-15T10:57:31;20.50;98.80
2839;DHT22;1427;48.510;9.060;2024-02-15T11:00:02;20.80;98.70
2839;DHT22;1427;48.510;9.060;2024-02-15T11:02:42;20.90;98.40
2839;DHT22;1427;48.510;9.060;2024-02-15T11:05:15;21.10;98.30
2839;DHT22;1427;48.510;9.060;2024-02-15T11:07:48;21.60;98.00
2839;DHT22;1427;48.510;9.060;2024-02-15T11:10:16;22.10;98.00
2839;DHT22;1427;48.510;9.060;2024-02-15T11:12:44;22.50;97.10
2839;DHT22;1427;48.510;9.060;2024-02-15T11:15:39;22.50;96.20
2839;DHT22;1427;48.510;9.060;2024-02-15T11:18:09;22.20;96.00
2839;DHT22;1427;48.510;9.060;2024-02-15T11:20:51;21.70;96.40
2839;DHT22;1427;48.510;9.060;2024-02-15T11:23:25;21.30;97.30
2839;DHT22;1427;48.510;9.060;2024-02-15T11:26:03;21.30;96.80
2839;DHT22;1427;48.510;9.060;2024-02-15T11:28:39;20.70;97.40
2839;DHT22;1427;48.510;9.060;2024-02-15T11:31:09;21.00;97.50
2839;DHT22;1427;48.510;9.060;2024-02-15T11:33:43;21.40;96.70
2839;DHT22;1427;48.510;9.060;2024-02-15T11:36:12;21.70;96.90
2839;DHT22;1427;48.510;9.060;2024-02-15T11:38:41;21.60;96.20
2839;DHT22;1427;48.510;9.060;2024-02-15T11:41:10;22.00;95.40
2839;DHT22;1427;48.510;9.060;2024-02-15T11:43:46;22.10;95.60
2839;DHT22;1427;48.510;9.060;2024-02-15T11:46:18;22.30;95.40
2839;DHT22;1427;48.510;9.060;2024-02-15T11:48:49;22.10;94.50
2839;DHT22;1427;48.510;9.060;2024-02-15T11:51:30;22.00;95.20
2839;DHT22;1427;48.510;9.060;2024-02-15T11:54:05;22.00;95.40
2839;DHT22;1427;48.510;9.060;2024-02-15T11:56:49;21.90;95.40
2839;DHT22;1427;48.510;9.060;2024-02-15T11:59:21;22.00;95.50
2839;DHT22;1427;48.510;9.060;2024-02-15T12:01:59;22.20;95.20
2839;DHT22;1427;48.510;9.060;2024-02-15T12:04:51;22.40;94.70
2839;DHT22;1427;48.510;9.060;2024-02-15T12:07:37;22.00;94.40
2839;DHT22;1427;48.510;9.060;2024-02-15T12:10:23;22.40;95.50
2839;DHT22;1427;48.510;9.060;2024-02-15T12:13:09;23.00;94.90
2839;DHT22;1427;48.510;9.060;2024-02-15T12:15:59;23.70;94.10
2839;DHT22;1427;48.510;9.060;2024-02-15T12:18:45;24.10;93.00
2839;DHT22;1427;48.510;9.060;2024-02-15T12:21:22;24.20;92.30
2839;DHT22;1427;48.510;9.060;2024-02-15T12:23:52;24.00;92.60
2839;DHT22;1427;48.510;9.060;2024-02-15T12:26:20;24.20;92.00
2839;DHT22;1427;48.510;9.060;2024-02-15T12:28:51;24.50;92.50
2839;DHT22;1427;48.510;9.060;2024-02-15T12:31:23;24.60;91.20
2839;DHT22;1427;48.510;9.060;2024-02-15T12:34:00;24.30;91.20
2839;DHT22;1427;48.510;9.060;2024-02-15T12:36:31;24.10;91.30
2839;DHT22;1427;48.510;9.060;2024-02-15T12:39:00;24.00;91.20
2839;DHT22;1427;48.510;9.060;2024-02-15T12:41:29;23.70;91.00
2839;DHT22;1427;48.510;9.060;2024-02-15T12:43:57;23.60;91.60
2839;DHT22;1427;48.510;9.060;2024-02-15T12:46:26;23.60;90.90
2839;DHT22;1427;48.510;9.060;2024-02-15T12:49:10;23.50;91.10
2839;DHT22;1427;48.510;9.060;2024-02-15T12:51:50;23.20;91.40
2839;DHT22;1427;48.510;9.060;2024-02-15T12:54:20;23.10;90.80
2839;DHT22;1427;48.510;9.060;2024-02-15T12:56:49;22.80;90.80
2839;DHT22;1427;48.510;9.060;2024-02-15T12:59:19;22.60;91.60
2839;DHT22;1427;48.510;9.060;2024-02-15T13:01:49;22.60;91.50
2839;DHT22;1427;48.510;9.060;2024-02-15T13:04:23;22.40;91.60
2839;DHT22;1427;48.510;9.060;2024-02-15T13:06:53;22.20;92.00
2839;DHT22;1427;48.510;9.060;2024-02-15T13:09:21;22.20;91.70
2839;DHT22;1427;48.510;9.060;2024-02-15T13:11:50;22.00;91.90
2839;DHT22;1427;48.510;9.060;2024-02-15T13:14:20;22.10;91.60
2839;DHT22;1427;48.510;9.060;2024-02-15T13:16:49;21.90;92.40
2839;DHT22;1427;48.510;9.060;2024-02-15T13:19:18;22.00;92.40
2839;DHT22;1427;48.510;9.060;2024-02-15T13:21:48;22.00;92.60
2839;DHT22;1427;48.510;9.060;2024-02-15T13:24:21;21.80;92.10
2839;DHT22;1427;48.510;9.060;2024-02-15T13:26:52;21.80;92.20
2839;DHT22;1427;48.510;9.060;2024-02-15T13:29:24;21.70;91.60
2839;DHT22;1427;48.510;9.060;2024-02-15T13:31:52;21.60;92.60
2839;DHT22;1427;48.510;9.060;2024-02-15T13:34:21;21.40;92.70
2839;DHT22;1427;48.510;9.060;2024-02-15T13:36:50;21.40;93.00
2839;DHT22;1427;48.510;9.060;2024-02-15T13:39:18;21.40;92.00
2839;DHT22;1427;48.510;9.060;2024-02-15T13:41:50;21.30;92.80
2839;DHT22;1427;48.510;9.060;2024-02-15T13:44:19;21.20;93.20
2839;DHT22;1427;48.510;9.060;2024-02-15T13:46:47;21.00;92.70
2839;DHT22;1427;48.510;9.060;2024-02-15T13:49:16;21.10;92.50
2839;DHT22;1427;48.510;9.060;2024-02-15T13:51:58;20.90;93.10
2839;DHT22;1427;48.510;9.060;2024-02-15T13:54:30;20.60;93.50
2839;DHT22;1427;48.510;9.060;2024-02-15T13:57:00;20.50;92.90
2839;DHT22;1427;48.510;9.060;2024-02-15T13:59:29;20.20;93.60
2839;DHT22;1427;48.510;9.060;2024-02-15T14:01:57;20.20;94.20
2839;DHT22;1427;48.510;9.060;2024-02-15T14:04:25;19.90;94.20
2839;DHT22;1427;48.510;9.060;2024-02-15T14:06:53;19.70;93.90
2839;DHT22;1427;48.510;9.060;2024-02-15T14:09:23;19.60;94.50
2839;DHT22;1427;48.510;9.060;2024-02-15T14:11:53;19.40;94.40
2839;DHT22;1427;48.510;9.060;2024-02-15T14:14:23;19.50;95.20
2839;DHT22;1427;48.510;9.060;2024-02-15T14:16:52;19.50;94.80
2839;DHT22;1427;48.510;9.060;2024-02-15T14:19:20;19.50;95.20
2839;DHT22;1427;48.510;9.060;2024-02-15T14:21:53;19.70;94.40
2839;DHT22;1427;48.510;9.060;2024-02-15T14:24:21;19.60;94.80
2839;DHT22;1427;48.510;9.060;2024-02-15T14:26:50;19.60;95.00
2839;DHT22;1427;48.510;9.060;2024-02-15T14:29:18;19.50;95.00
2839;DHT22;1427;48.510;9.060;2024-02-15T14:31:54;19.70;95.10
2839;DHT22;1427;48.510;9.060;2024-02-15T14:34:39;19.70;94.30
2839;DHT22;1427;48.510;9.060;2024-02-15T14:37:08;19.50;95.00
2839;DHT22;1427;48.510;9.060;2024-02-15T14:39:36;19.80;95.00
2839;DHT22;1427;48.510;9.060;2024-02-15T14:42:05;20.00;94.60
2839;DHT22;1427;48.510;9.060;2024-02-15T14:44:36;20.00;93.90
2839;DHT22;1427;48.510;9.060;2024-02-15T14:47:07;20.00;94.40
2839;DHT22;1427;48.510;9.060;2024-02-15T14:49:35;20.10;94.80
2839;DHT22;1427;48.510;9.060;2024-02-15T14:52:03;20.30;94.30
2839;DHT22;1427;48.510;9.060;2024-02-15T14:54:32;20.20;94.30
2839;DHT22;1427;48.510;9.060;2024-02-15T14:57:03;20.30;94.20
2839;DHT22;1427;48.510;9.060;2024-02-15T14:59:31;20.30;93.90
2839;DHT22;1427;48.510;9.060;2024-02-15T15:02:01;20.40;94.40
2839;DHT22;1427;48.510;9.060;2024-02-15T15:04:39;20.30;94.20
2839;DHT22;1427;48.510;9.060;2024-02-15T15:07:35;20.20;94.10
2839;DHT22;1427;48.510;9.060;2024-02-15T15:10:20;19.80;94.70
2839;DHT22;1427;48.510;9.060;2024-02-15T15:13:06;19.20;95.50
2839;DHT22;1427;48.510;9.060;2024-02-15T15:15:34;18.80;96.30
2839;DHT22;1427;48.510;9.060;2024-02-15T15:18:04;18.60;96.70
2839;DHT22;1427;48.510;9.060;2024-02-15T15:20:34;18.20;97.20
2839;DHT22;1427;48.510;9.060;2024-02-15T15:23:04;17.80;97.70
2839;DHT22;1427;48.510;9.060;2024-02-15T15:25:34;17.80;98.20
2839;DHT22;1427;48.510;9.060;2024-02-15T15:28:04;17.60;97.90
2839;DHT22;1427;48.510;9.060;2024-02-15T15:30:32;17.40;98.10
2839;DHT22;1427;48.510;9.060;2024-02-15T15:33:01;17.30;98.40
2839;DHT22;1427;48.510;9.060;2024-02-15T15:35:29;17.10;98.40
2839;DHT22;1427;48.510;9.060;2024-02-15T15:38:02;17.00;98.50
2839;DHT22;1427;48.510;9.060;2024-02-15T15:40:30;17.00;98.70
2839;DHT22;1427;48.510;9.060;2024-02-15T15:42:58;16.90;99.20
2839;DHT22;1427;48.510;9.060;2024-02-15T15:45:26;16.80;99.30
2839;DHT22;1427;48.510;9.060;2024-02-15T15:47:55;16.80;99.20
2839;DHT22;1427;48.510;9.060;2024-02-15T15:50:23;16.70;99.30
2839;DHT22;1427;48.510;9.060;2024-02-15T15:52:51;16.60;99.60
2839;DHT22;1427;48.510;9.060;2024-02-15T15:55:22;16.60;99.90
2839;DHT22;1427;48.510;9.060;2024-02-15T15:57:50;16.60;99.90
2839;DHT22;1427;48.510;9.060;2024-02-15T16:00:20;16.50;99.90
2839;DHT22;1427;48.510;9.060;2024-02-15T16:02:48;16.40;99.90
2839;DHT22;1427;48.510;9.060;2024-02-15T16:05:18;16.40;99.90
2839;DHT22;1427;48.510;9.060;2024-02-15T16:07:47;16.20;99.90
2839;DHT22;1427;48.510;9.060;2024-02-15T16:10:15;16.30;99.90
2839;DHT22;1427;48.510;9.060;2024-02-15T16:12:46;16.20;99.90
2839;DHT22;1427;48.510;9.060;2024-02-15T16:15:14;16.20;99.90
2839;DHT22;1427;48.510;9.060;2024-02-15T16:17:43;16.10;99.90
2839;DHT22;1427;48.510;9.060;2024-02-15T16:20:13;15.90;99.90
2839;DHT22;1427;48.510;9.060;2024-02-15T16:22:42;15.90;99.90
2839;DHT22;1427;48.510;9.060;2024-02-15T16:25:10;16.00;99.90
2839;DHT22;1427;48.510;9.060;2024-02-15T16:27:39;15.70;99.90
2839;DHT22;1427;48.510;9.060;2024-02-15T16:30:10;15.60;99.90
2839;DHT22;1427;48.510;9.060;2024-02-15T16:32:41;15.60;99.90